sensor_id;sensor_type;location;lat;lon;timestamp;pressure;altitude;pressure_sealevel;temperature;humidity
79136;BME280;68533;51.090;17.216;2023-09-18T00:00:47;100091.91;;;12.64;100.00
79136;BME280;68533;51.090;17.216;2023-09-18T00:03:36;100094.78;;;12.59;100.00
79136;BME280;68533;51.090;17.216;2023-09-18T00:06:02;100081.69;;;12.51;100.00
79136;BME280;68533;51.090;17.216;2023-09-18T00:08:29;100091.16;;;12.45;100.00
79136;BME280;68533;51.090;17.216;2023-09-18T00:10:58;100090.97;;;12.82;100.00
79136;BME280;68533;51.090;17.216;2023-09-18T00:13:23;100084.66;;;12.96;100.00
79136;BME280;68533;51.090;17.216;2023-09-18T00:15:53;100080.56;;;12.93;100.00
79136;BME280;68533;51.090;17.216;2023-09-18T00:18:19;100083.53;;;13.24;100.00
79136;BME280;68533;51.090;17.216;2023-09-18T00:20:46;100076.78;;;13.52;100.00
79136;BME280;68533;51.090;17.216;2023-09-18T00:23:13;100084.50;;;13.78;100.00
79136;BME280;68533;51.090;17.216;2023-09-18T00:25:41;100082.91;;;13.63;100.00
79136;BME280;68533;51.090;17.216;2023-09-18T00:28:08;100078.13;;;13.55;100.00
79136;BME280;68533;51.090;17.216;2023-09-18T00:30:34;100082.78;;;13.32;100.00
79136;BME280;68533;51.090;17.216;2023-09-18T00:33:00;100078.31;;;13.09;100.00
79136;BME280;68533;51.090;17.216;2023-09-18T00:35:26;100075.84;;;13.21;100.00
79136;BME280;68533;51.090;17.216;2023-09-18T00:37:52;100075.19;;;13.38;100.00
79136;BME280;68533;51.090;17.216;2023-09-18T00:40:19;100074.50;;;13.32;100.00
79136;BME280;68533;51.090;17.216;2023-09-18T00:42:45;100072.78;;;13.23;100.00
79136;BME280;68533;51.090;17.216;2023-09-18T00:45:11;100077.06;;;13.29;100.00
79136;BME280;68533;51.090;17.216;2023-09-18T00:47:37;100076.75;;;13.30;100.00
79136;BME280;68533;51.090;17.216;2023-09-18T00:50:06;100070.69;;;13.42;100.00
79136;BME280;68533;51.090;17.216;2023-09-18T00:52:33;100062.22;;;13.38;100.00
79136;BME280;68533;51.090;17.216;2023-09-18T00:55:00;100065.91;;;13.34;100.00
79136;BME280;68533;51.090;17.216;2023-09-18T00:57:26;100067.69;;;13.16;100.00
79136;BME280;68533;51.090;17.216;2023-09-18T00:59:53;100063.59;;;13.13;100.00
79136;BME280;68533;51.090;17.216;2023-09-18T01:02:19;100057.75;;;13.01;100.00
79136;BME280;68533;51.090;17.216;2023-09-18T01:04:48;100053.38;;;12.87;100.00
79136;BME280;68533;51.090;17.216;2023-09-18T01:07:14;100062.59;;;12.96;100.00
79136;BME280;68533;51.090;17.216;2023-09-18T01:09:41;100063.38;;;13.24;100.00
79136;BME280;68533;51.090;17.216;2023-09-18T01:12:17;100070.31;;;13.21;100.00
79136;BME280;68533;51.090;17.216;2023-09-18T01:17:37;100058.03;;;13.27;100.00
79136;BME280;68533;51.090;17.216;2023-09-18T01:20:10;100051.91;;;13.30;100.00
79136;BME280;68533;51.090;17.216;2023-09-18T01:22:36;100053.63;;;13.40;100.00
79136;BME280;68533;51.090;17.216;2023-09-18T01:25:02;100059.28;;;13.21;100.00
79136;BME280;68533;51.090;17.216;2023-09-18T01:27:28;100050.38;;;13.24;100.00
79136;BME280;68533;51.090;17.216;2023-09-18T01:29:54;100046.38;;;13.30;100.00
79136;BME280;68533;51.090;17.216;2023-09-18T01:32:24;100051.59;;;13.32;100.00
79136;BME280;68533;51.090;17.216;2023-09-18T01:34:54;100047.19;;;13.31;100.00
79136;BME280;68533;51.090;17.216;2023-09-18T01:37:24;100037.09;;;13.26;100.00
79136;BME280;68533;51.090;17.216;2023-09-18T01:39:52;100044.88;;;13.24;100.00
79136;BME280;68533;51.090;17.216;2023-09-18T01:42:23;100036.69;;;13.19;100.00
79136;BME280;68533;51.090;17.216;2023-09-18T01:44:51;100030.97;;;13.15;100.00
79136;BME280;68533;51.090;17.216;2023-09-18T01:47:18;100026.66;;;13.09;100.00
79136;BME280;68533;51.090;17.216;2023-09-18T01:49:45;100024.72;;;13.10;100.00
79136;BME280;68533;51.090;17.216;2023-09-18T01:52:12;100028.91;;;13.07;100.00
79136;BME280;68533;51.090;17.216;2023-09-18T01:54:38;100020.47;;;13.04;100.00
79136;BME280;68533;51.090;17.216;2023-09-18T01:57:04;100019.50;;;13.08;100.00
79136;BME280;68533;51.090;17.216;2023-09-18T01:59:33;100015.13;;;13.07;100.00
79136;BME280;68533;51.090;17.216;2023-09-18T02:02:00;100012.34;;;13.07;100.00
79136;BME280;68533;51.090;17.216;2023-09-18T02:04:30;100009.59;;;13.07;100.00
79136;BME280;68533;51.090;17.216;2023-09-18T02:06:56;100014.81;;;13.09;100.00
79136;BME280;68533;51.090;17.216;2023-09-18T02:09:23;100014.84;;;12.95;100.00
79136;BME280;68533;51.090;17.216;2023-09-18T02:11:48;100011.88;;;12.92;100.00
79136;BME280;68533;51.090;17.216;2023-09-18T02:14:15;100006.56;;;12.95;100.00
79136;BME280;68533;51.090;17.216;2023-09-18T02:16:44;100011.28;;;12.95;100.00
79136;BME280;68533;51.090;17.216;2023-09-18T02:19:13;100001.22;;;12.99;100.00
79136;BME280;68533;51.090;17.216;2023-09-18T02:21:39;100007.78;;;13.03;100.00
79136;BME280;68533;51.090;17.216;2023-09-18T02:24:06;100001.91;;;13.04;100.00
79136;BME280;68533;51.090;17.216;2023-09-18T02:26:32;99996.09;;;13.06;100.00
79136;BME280;68533;51.090;17.216;2023-09-18T02:29:00;99988.94;;;13.05;100.00
79136;BME280;68533;51.090;17.216;2023-09-18T02:31:27;99995.09;;;13.02;100.00
79136;BME280;68533;51.090;17.216;2023-09-18T02:33:53;99998.28;;;12.95;100.00
79136;BME280;68533;51.090;17.216;2023-09-18T02:36:19;100001.97;;;12.91;100.00
79136;BME280;68533;51.090;17.216;2023-09-18T02:38:45;100001.66;;;12.92;100.00
79136;BME280;68533;51.090;17.216;2023-09-18T02:41:11;100005.13;;;12.98;100.00
79136;BME280;68533;51.090;17.216;2023-09-18T02:43:38;99998.97;;;13.01;100.00
79136;BME280;68533;51.090;17.216;2023-09-18T02:46:05;99994.84;;;13.12;100.00
79136;BME280;68533;51.090;17.216;2023-09-18T02:48:32;100002.84;;;13.13;100.00
79136;BME280;68533;51.090;17.216;2023-09-18T02:51:01;100001.00;;;13.09;100.00
79136;BME280;68533;51.090;17.216;2023-09-18T02:53:29;99999.16;;;13.04;100.00
79136;BME280;68533;51.090;17.216;2023-09-18T02:55:57;99994.88;;;12.98;100.00
79136;BME280;68533;51.090;17.216;2023-09-18T02:58:23;99998.78;;;12.97;100.00
79136;BME280;68533;51.090;17.216;2023-09-18T03:00:56;99993.16;;;13.02;100.00
79136;BME280;68533;51.090;17.216;2023-09-18T03:03:24;99993.25;;;12.97;100.00
79136;BME280;68533;51.090;17.216;2023-09-18T03:05:50;99998.47;;;12.99;100.00
79136;BME280;68533;51.090;17.216;2023-09-18T03:08:17;99994.28;;;13.01;100.00
79136;BME280;68533;51.090;17.216;2023-09-18T03:10:43;99994.66;;;13.08;100.00
79136;BME280;68533;51.090;17.216;2023-09-18T03:13:12;99987.09;;;13.14;100.00
79136;BME280;68533;51.090;17.216;2023-09-18T03:15:38;99988.75;;;13.15;100.00
79136;BME280;68533;51.090;17.216;2023-09-18T03:18:06;99996.72;;;13.16;100.00
79136;BME280;68533;51.090;17.216;2023-09-18T03:20:33;99989.16;;;13.08;100.00
79136;BME280;68533;51.090;17.216;2023-09-18T03:23:01;99977.91;;;13.18;100.00
79136;BME280;68533;51.090;17.216;2023-09-18T03:25:27;99988.63;;;13.20;100.00
79136;BME280;68533;51.090;17.216;2023-09-18T03:27:56;99986.28;;;13.13;100.00
79136;BME280;68533;51.090;17.216;2023-09-18T03:30:22;99973.50;;;13.17;100.00
79136;BME280;68533;51.090;17.216;2023-09-18T03:32:50;99984.97;;;13.11;100.00
79136;BME280;68533;51.090;17.216;2023-09-18T03:35:16;99980.19;;;13.03;100.00
79136;BME280;68533;51.090;17.216;2023-09-18T03:37:50;99971.06;;;13.02;100.00
79136;BME280;68533;51.090;17.216;2023-09-18T03:40:17;99967.81;;;13.00;100.00
79136;BME280;68533;51.090;17.216;2023-09-18T03:42:45;99958.53;;;12.82;100.00
79136;BME280;68533;51.090;17.216;2023-09-18T03:45:11;99965.16;;;12.95;100.00
79136;BME280;68533;51.090;17.216;2023-09-18T03:47:38;99964.66;;;12.93;100.00
79136;BME280;68533;51.090;17.216;2023-09-18T03:50:08;99952.41;;;12.86;100.00
79136;BME280;68533;51.090;17.216;2023-09-18T03:52:36;99955.00;;;13.04;100.00
79136;BME280;68533;51.090;17.216;2023-09-18T03:55:02;99961.25;;;13.10;100.00
79136;BME280;68533;51.090;17.216;2023-09-18T03:57:28;99953.06;;;13.05;100.00
79136;BME280;68533;51.090;17.216;2023-09-18T03:59:54;99948.06;;;13.07;100.00
79136;BME280;68533;51.090;17.216;2023-09-18T04:02:24;99952.38;;;12.99;100.00
79136;BME280;68533;51.090;17.216;2023-09-18T04:04:50;99940.03;;;12.97;100.00
79136;BME280;68533;51.090;17.216;2023-09-18T04:07:16;99940.78;;;13.11;100.00
79136;BME280;68533;51.090;17.216;2023-09-18T04:09:42;99928.53;;;13.17;100.00
79136;BME280;68533;51.090;17.216;2023-09-18T04:12:09;99937.50;;;13.23;100.00
79136;BME280;68533;51.090;17.216;2023-09-18T04:14:35;99941.50;;;13.16;100.00
79136;BME280;68533;51.090;17.216;2023-09-18T04:17:02;99933.53;;;13.15;100.00
79136;BME280;68533;51.090;17.216;2023-09-18T04:19:29;99938.56;;;12.99;100.00
79136;BME280;68533;51.090;17.216;2023-09-18T04:21:56;99931.75;;;12.83;100.00
79136;BME280;68533;51.090;17.216;2023-09-18T04:24:23;99931.47;;;12.84;100.00
79136;BME280;68533;51.090;17.216;2023-09-18T04:26:50;99936.16;;;12.84;100.00
79136;BME280;68533;51.090;17.216;2023-09-18T04:29:21;99932.19;;;12.76;100.00
79136;BME280;68533;51.090;17.216;2023-09-18T04:31:50;99924.66;;;12.68;100.00
79136;BME280;68533;51.090;17.216;2023-09-18T04:34:16;99923.13;;;12.62;100.00
79136;BME280;68533;51.090;17.216;2023-09-18T04:36:43;99917.50;;;12.67;100.00
79136;BME280;68533;51.090;17.216;2023-09-18T04:39:11;99920.38;;;12.62;100.00
79136;BME280;68533;51.090;17.216;2023-09-18T04:41:37;99908.38;;;12.44;100.00
79136;BME280;68533;51.090;17.216;2023-09-18T04:44:04;99909.16;;;12.59;100.00
79136;BME280;68533;51.090;17.216;2023-09-18T04:46:30;99905.66;;;12.67;100.00
79136;BME280;68533;51.090;17.216;2023-09-18T04:48:57;99910.16;;;12.63;100.00
79136;BME280;68533;51.090;17.216;2023-09-18T04:51:23;99912.41;;;12.61;100.00
79136;BME280;68533;51.090;17.216;2023-09-18T04:53:49;99907.09;;;12.64;100.00
79136;BME280;68533;51.090;17.216;2023-09-18T04:56:17;99904.72;;;12.71;100.00
79136;BME280;68533;51.090;17.216;2023-09-18T04:58:45;99905.25;;;12.73;100.00
79136;BME280;68533;51.090;17.216;2023-09-18T05:01:11;99895.94;;;12.69;100.00
79136;BME280;68533;51.090;17.216;2023-09-18T05:03:38;99897.66;;;12.79;100.00
79136;BME280;68533;51.090;17.216;2023-09-18T05:06:04;99905.25;;;12.73;100.00
79136;BME280;68533;51.090;17.216;2023-09-18T05:08:30;99904.00;;;12.79;100.00
79136;BME280;68533;51.090;17.216;2023-09-18T05:10:57;99897.97;;;13.00;100.00
79136;BME280;68533;51.090;17.216;2023-09-18T05:13:24;99902.72;;;13.21;100.00
79136;BME280;68533;51.090;17.216;2023-09-18T05:15:49;99891.22;;;13.06;100.00
79136;BME280;68533;51.090;17.216;2023-09-18T05:18:16;99903.03;;;13.20;100.00
79136;BME280;68533;51.090;17.216;2023-09-18T05:20:42;99893.00;;;13.24;100.00
79136;BME280;68533;51.090;17.216;2023-09-18T05:23:08;99901.19;;;13.60;100.00
79136;BME280;68533;51.090;17.216;2023-09-18T05:25:34;99893.50;;;13.88;100.00
79136;BME280;68533;51.090;17.216;2023-09-18T05:28:04;99895.13;;;14.28;100.00
79136;BME280;68533;51.090;17.216;2023-09-18T05:30:36;99898.44;;;14.48;100.00
79136;BME280;68533;51.090;17.216;2023-09-18T05:33:06;99898.84;;;14.89;100.00
79136;BME280;68533;51.090;17.216;2023-09-18T05:35:39;99893.09;;;15.37;100.00
79136;BME280;68533;51.090;17.216;2023-09-18T05:38:06;99900.34;;;15.76;99.56
79136;BME280;68533;51.090;17.216;2023-09-18T05:40:32;99884.81;;;15.93;98.89
79136;BME280;68533;51.090;17.216;2023-09-18T05:42:58;99889.44;;;16.39;96.57
79136;BME280;68533;51.090;17.216;2023-09-18T05:45:25;99890.16;;;16.56;94.93
79136;BME280;68533;51.090;17.216;2023-09-18T05:47:52;99891.63;;;16.83;93.28
79136;BME280;68533;51.090;17.216;2023-09-18T05:50:32;99883.72;;;16.94;92.99
79136;BME280;68533;51.090;17.216;2023-09-18T05:52:59;99887.75;;;17.17;92.61
79136;BME280;68533;51.090;17.216;2023-09-18T05:55:26;99883.38;;;17.28;91.60
79136;BME280;68533;51.090;17.216;2023-09-18T05:57:54;99886.66;;;17.30;91.19
79136;BME280;68533;51.090;17.216;2023-09-18T06:00:22;99882.97;;;17.38;90.83
79136;BME280;68533;51.090;17.216;2023-09-18T06:02:56;99881.38;;;17.70;90.55
79136;BME280;68533;51.090;17.216;2023-09-18T06:05:25;99882.09;;;18.04;88.46
79136;BME280;68533;51.090;17.216;2023-09-18T06:07:52;99875.50;;;18.20;87.80
79136;BME280;68533;51.090;17.216;2023-09-18T06:10:18;99874.06;;;18.02;88.76
79136;BME280;68533;51.090;17.216;2023-09-18T06:12:45;99870.97;;;18.28;87.71
79136;BME280;68533;51.090;17.216;2023-09-18T06:15:11;99880.81;;;18.62;86.79
79136;BME280;68533;51.090;17.216;2023-09-18T06:17:42;99868.50;;;18.39;86.91
79136;BME280;68533;51.090;17.216;2023-09-18T06:20:10;99871.06;;;18.19;87.96
79136;BME280;68533;51.090;17.216;2023-09-18T06:22:39;99878.00;;;18.74;88.10
79136;BME280;68533;51.090;17.216;2023-09-18T06:25:08;99878.59;;;19.08;85.13
79136;BME280;68533;51.090;17.216;2023-09-18T06:27:38;99864.91;;;19.30;83.70
79136;BME280;68533;51.090;17.216;2023-09-18T06:30:07;99873.06;;;19.51;82.22
79136;BME280;68533;51.090;17.216;2023-09-18T06:32:34;99869.03;;;19.64;83.25
79136;BME280;68533;51.090;17.216;2023-09-18T06:35:00;99875.00;;;19.63;82.41
79136;BME280;68533;51.090;17.216;2023-09-18T06:37:26;99867.00;;;19.77;82.00
79136;BME280;68533;51.090;17.216;2023-09-18T06:39:52;99871.06;;;19.95;81.84
79136;BME280;68533;51.090;17.216;2023-09-18T06:42:19;99865.38;;;20.39;79.78
79136;BME280;68533;51.090;17.216;2023-09-18T06:44:47;99865.91;;;20.29;78.66
79136;BME280;68533;51.090;17.216;2023-09-18T06:47:14;99856.09;;;20.03;79.98
79136;BME280;68533;51.090;17.216;2023-09-18T06:49:41;99858.66;;;19.93;80.17
79136;BME280;68533;51.090;17.216;2023-09-18T06:52:09;99857.63;;;20.01;79.61
79136;BME280;68533;51.090;17.216;2023-09-18T06:54:38;99857.47;;;19.78;81.19
79136;BME280;68533;51.090;17.216;2023-09-18T06:57:04;99859.00;;;19.91;81.01
79136;BME280;68533;51.090;17.216;2023-09-18T06:59:30;99858.41;;;20.33;80.36
79136;BME280;68533;51.090;17.216;2023-09-18T07:01:56;99858.53;;;20.36;78.80
79136;BME280;68533;51.090;17.216;2023-09-18T07:04:22;99860.16;;;20.37;78.23
79136;BME280;68533;51.090;17.216;2023-09-18T07:06:48;99855.56;;;20.45;78.24
79136;BME280;68533;51.090;17.216;2023-09-18T07:09:14;99849.97;;;20.45;77.57
79136;BME280;68533;51.090;17.216;2023-09-18T07:11:40;99862.44;;;20.86;76.56
79136;BME280;68533;51.090;17.216;2023-09-18T07:14:08;99863.34;;;21.28;75.17
79136;BME280;68533;51.090;17.216;2023-09-18T07:16:35;99858.69;;;21.55;74.13
79136;BME280;68533;51.090;17.216;2023-09-18T07:19:01;99858.75;;;21.59;74.32
79136;BME280;68533;51.090;17.216;2023-09-18T07:21:31;99854.03;;;21.63;73.48
79136;BME280;68533;51.090;17.216;2023-09-18T07:23:58;99847.75;;;21.69;73.12
79136;BME280;68533;51.090;17.216;2023-09-18T07:26:26;99844.00;;;21.01;75.65
79136;BME280;68533;51.090;17.216;2023-09-18T07:28:52;99841.97;;;21.17;74.71
79136;BME280;68533;51.090;17.216;2023-09-18T07:31:19;99842.38;;;21.00;74.48
79136;BME280;68533;51.090;17.216;2023-09-18T07:33:44;99836.06;;;21.41;73.73
79136;BME280;68533;51.090;17.216;2023-09-18T07:36:11;99841.47;;;21.76;73.66
79136;BME280;68533;51.090;17.216;2023-09-18T07:38:37;99839.78;;;22.17;71.11
79136;BME280;68533;51.090;17.216;2023-09-18T07:41:09;99843.94;;;22.00;71.33
79136;BME280;68533;51.090;17.216;2023-09-18T07:43:35;99845.78;;;21.93;72.18
79136;BME280;68533;51.090;17.216;2023-09-18T07:46:01;99842.31;;;22.26;71.91
79136;BME280;68533;51.090;17.216;2023-09-18T07:48:27;99853.81;;;23.00;69.21
79136;BME280;68533;51.090;17.216;2023-09-18T07:50:54;99848.66;;;23.05;69.21
79136;BME280;68533;51.090;17.216;2023-09-18T07:53:23;99853.22;;;23.17;67.36
79136;BME280;68533;51.090;17.216;2023-09-18T07:55:55;99843.50;;;23.07;66.88
79136;BME280;68533;51.090;17.216;2023-09-18T07:58:22;99838.03;;;23.18;68.79
79136;BME280;68533;51.090;17.216;2023-09-18T08:00:50;99843.00;;;23.35;67.52
79136;BME280;68533;51.090;17.216;2023-09-18T08:03:40;99832.03;;;22.60;69.50
79136;BME280;68533;51.090;17.216;2023-09-18T08:06:10;99837.25;;;22.61;69.17
79136;BME280;68533;51.090;17.216;2023-09-18T08:08:40;99826.25;;;22.75;68.81
79136;BME280;68533;51.090;17.216;2023-09-18T08:11:08;99828.88;;;23.25;67.77
79136;BME280;68533;51.090;17.216;2023-09-18T08:13:37;99832.75;;;22.83;68.40
79136;BME280;68533;51.090;17.216;2023-09-18T08:16:06;99812.94;;;22.99;67.53
79136;BME280;68533;51.090;17.216;2023-09-18T08:18:32;99811.09;;;23.13;68.86
79136;BME280;68533;51.090;17.216;2023-09-18T08:20:59;99821.06;;;23.44;67.28
79136;BME280;68533;51.090;17.216;2023-09-18T08:23:25;99816.66;;;23.43;66.63
79136;BME280;68533;51.090;17.216;2023-09-18T08:25:52;99812.06;;;23.25;68.14
79136;BME280;68533;51.090;17.216;2023-09-18T08:28:21;99808.81;;;23.22;68.36
79136;BME280;68533;51.090;17.216;2023-09-18T08:30:48;99804.22;;;23.07;67.64
79136;BME280;68533;51.090;17.216;2023-09-18T08:33:14;99807.84;;;23.41;66.79
79136;BME280;68533;51.090;17.216;2023-09-18T08:35:41;99807.41;;;23.39;68.15
79136;BME280;68533;51.090;17.216;2023-09-18T08:38:06;99799.41;;;23.78;67.35
79136;BME280;68533;51.090;17.216;2023-09-18T08:43:14;99792.00;;;23.59;67.21
79136;BME280;68533;51.090;17.216;2023-09-18T08:45:54;99789.44;;;23.88;67.20
79136;BME280;68533;51.090;17.216;2023-09-18T08:48:28;99793.09;;;23.95;65.83
79136;BME280;68533;51.090;17.216;2023-09-18T08:51:02;99782.13;;;23.76;66.50
79136;BME280;68533;51.090;17.216;2023-09-18T08:53:34;99778.72;;;24.04;66.19
79136;BME280;68533;51.090;17.216;2023-09-18T08:56:02;99775.53;;;24.06;66.41
79136;BME280;68533;51.090;17.216;2023-09-18T08:58:34;99769.59;;;23.67;66.31
79136;BME280;68533;51.090;17.216;2023-09-18T09:01:06;99760.22;;;23.96;66.43
79136;BME280;68533;51.090;17.216;2023-09-18T09:03:41;99752.31;;;24.16;65.25
79136;BME280;68533;51.090;17.216;2023-09-18T09:06:09;99757.03;;;23.97;65.16
79136;BME280;68533;51.090;17.216;2023-09-18T09:08:37;99752.03;;;24.31;64.19
79136;BME280;68533;51.090;17.216;2023-09-18T09:11:05;99757.31;;;24.36;64.93
79136;BME280;68533;51.090;17.216;2023-09-18T09:13:35;99761.34;;;24.43;64.72
79136;BME280;68533;51.090;17.216;2023-09-18T09:16:03;99763.03;;;24.58;63.53
79136;BME280;68533;51.090;17.216;2023-09-18T09:18:29;99752.28;;;24.81;64.03
79136;BME280;68533;51.090;17.216;2023-09-18T09:21:02;99751.50;;;24.84;63.74
79136;BME280;68533;51.090;17.216;2023-09-18T09:23:47;99761.06;;;24.65;62.49
79136;BME280;68533;51.090;17.216;2023-09-18T09:26:23;99746.78;;;25.02;62.90
79136;BME280;68533;51.090;17.216;2023-09-18T09:28:49;99751.25;;;25.42;60.33
79136;BME280;68533;51.090;17.216;2023-09-18T09:31:28;99741.97;;;25.10;60.64
79136;BME280;68533;51.090;17.216;2023-09-18T09:33:55;99742.78;;;25.10;61.71
79136;BME280;68533;51.090;17.216;2023-09-18T09:36:27;99738.31;;;24.99;61.14
79136;BME280;68533;51.090;17.216;2023-09-18T09:38:58;99749.50;;;24.88;62.08
79136;BME280;68533;51.090;17.216;2023-09-18T09:41:26;99745.19;;;25.23;62.05
79136;BME280;68533;51.090;17.216;2023-09-18T09:43:55;99736.34;;;25.10;61.93
79136;BME280;68533;51.090;17.216;2023-09-18T09:46:25;99730.75;;;25.45;61.02
79136;BME280;68533;51.090;17.216;2023-09-18T09:49:05;99729.59;;;25.75;57.93
79136;BME280;68533;51.090;17.216;2023-09-18T09:51:35;99733.53;;;26.16;58.24
79136;BME280;68533;51.090;17.216;2023-09-18T09:54:03;99729.16;;;26.05;58.29
79136;BME280;68533;51.090;17.216;2023-09-18T09:56:49;99731.16;;;26.04;57.03
79136;BME280;68533;51.090;17.216;2023-09-18T09:59:19;99717.94;;;25.62;58.09
79136;BME280;68533;51.090;17.216;2023-09-18T10:01:47;99719.91;;;25.47;58.71
79136;BME280;68533;51.090;17.216;2023-09-18T10:04:17;99719.50;;;25.38;59.69
79136;BME280;68533;51.090;17.216;2023-09-18T10:06:51;99707.47;;;25.70;58.70
79136;BME280;68533;51.090;17.216;2023-09-18T10:09:20;99710.69;;;25.75;58.26
79136;BME280;68533;51.090;17.216;2023-09-18T10:12:00;99706.66;;;25.90;58.56
79136;BME280;68533;51.090;17.216;2023-09-18T10:14:31;99705.00;;;26.11;57.53
79136;BME280;68533;51.090;17.216;2023-09-18T10:17:09;99698.16;;;26.08;57.25
79136;BME280;68533;51.090;17.216;2023-09-18T10:20:28;99686.06;;;26.11;55.81
79136;BME280;68533;51.090;17.216;2023-09-18T10:22:46;99687.66;;;26.37;56.41
79136;BME280;68533;51.090;17.216;2023-09-18T10:25:21;99692.41;;;26.51;56.24
79136;BME280;68533;51.090;17.216;2023-09-18T10:27:54;99688.16;;;27.01;56.33
79136;BME280;68533;51.090;17.216;2023-09-18T10:30:35;99696.06;;;26.44;56.20
79136;BME280;68533;51.090;17.216;2023-09-18T10:33:12;99681.41;;;26.81;54.98
79136;BME280;68533;51.090;17.216;2023-09-18T10:35:41;99683.91;;;26.65;55.93
79136;BME280;68533;51.090;17.216;2023-09-18T10:38:10;99686.59;;;26.86;55.58
79136;BME280;68533;51.090;17.216;2023-09-18T10:40:39;99690.88;;;27.16;54.35
79136;BME280;68533;51.090;17.216;2023-09-18T10:43:10;99684.59;;;27.49;52.55
79136;BME280;68533;51.090;17.216;2023-09-18T10:45:37;99691.97;;;27.80;53.38
79136;BME280;68533;51.090;17.216;2023-09-18T10:48:09;99692.09;;;27.15;54.67
79136;BME280;68533;51.090;17.216;2023-09-18T10:50:35;99684.81;;;27.17;54.01
79136;BME280;68533;51.090;17.216;2023-09-18T10:53:04;99684.47;;;27.12;53.75
79136;BME280;68533;51.090;17.216;2023-09-18T10:55:31;99671.09;;;27.19;53.88
79136;BME280;68533;51.090;17.216;2023-09-18T10:58:23;99687.66;;;27.69;53.62
79136;BME280;68533;51.090;17.216;2023-09-18T11:00:54;99680.69;;;28.22;53.21
79136;BME280;68533;51.090;17.216;2023-09-18T11:03:27;99687.47;;;27.87;53.04
79136;BME280;68533;51.090;17.216;2023-09-18T11:06:15;99672.41;;;28.00;52.47
79136;BME280;68533;51.090;17.216;2023-09-18T11:09:02;99665.72;;;27.35;53.78
79136;BME280;68533;51.090;17.216;2023-09-18T11:11:30;99665.09;;;27.65;50.81
79136;BME280;68533;51.090;17.216;2023-09-18T11:14:10;99656.88;;;28.19;48.88
79136;BME280;68533;51.090;17.216;2023-09-18T11:16:42;99666.69;;;27.70;52.00
79136;BME280;68533;51.090;17.216;2023-09-18T11:19:28;99650.66;;;27.97;50.61
79136;BME280;68533;51.090;17.216;2023-09-18T11:22:06;99638.88;;;28.02;50.61
79136;BME280;68533;51.090;17.216;2023-09-18T11:24:34;99631.09;;;27.76;50.83
79136;BME280;68533;51.090;17.216;2023-09-18T11:27:06;99633.13;;;28.13;50.01
79136;BME280;68533;51.090;17.216;2023-09-18T11:29:39;99626.59;;;28.19;48.97
79136;BME280;68533;51.090;17.216;2023-09-18T11:32:07;99630.75;;;28.72;49.72
79136;BME280;68533;51.090;17.216;2023-09-18T11:34:37;99621.59;;;28.91;48.23
79136;BME280;68533;51.090;17.216;2023-09-18T11:37:21;99624.31;;;28.99;46.90
79136;BME280;68533;51.090;17.216;2023-09-18T11:39:55;99619.44;;;29.72;47.15
79136;BME280;68533;51.090;17.216;2023-09-18T11:43:26;99614.78;;;29.62;44.88
79136;BME280;68533;51.090;17.216;2023-09-18T11:45:59;99618.34;;;29.43;43.56
79136;BME280;68533;51.090;17.216;2023-09-18T11:48:30;99604.06;;;28.73;43.90
79136;BME280;68533;51.090;17.216;2023-09-18T11:51:02;99603.47;;;29.39;42.88
79136;BME280;68533;51.090;17.216;2023-09-18T11:53:34;99594.25;;;29.08;42.58
79136;BME280;68533;51.090;17.216;2023-09-18T11:56:12;99590.25;;;29.29;43.16
79136;BME280;68533;51.090;17.216;2023-09-18T11:58:51;99586.34;;;28.39;45.77
79136;BME280;68533;51.090;17.216;2023-09-18T12:01:18;99586.59;;;28.51;46.38
79136;BME280;68533;51.090;17.216;2023-09-18T12:03:45;99581.28;;;29.34;44.38
79136;BME280;68533;51.090;17.216;2023-09-18T12:06:13;99595.34;;;29.41;42.90
79136;BME280;68533;51.090;17.216;2023-09-18T12:08:51;99580.66;;;29.23;44.12
79136;BME280;68533;51.090;17.216;2023-09-18T12:11:41;99586.22;;;29.53;43.87
79136;BME280;68533;51.090;17.216;2023-09-18T12:14:10;99586.47;;;29.39;43.61
79136;BME280;68533;51.090;17.216;2023-09-18T12:16:39;99583.69;;;28.85;43.69
79136;BME280;68533;51.090;17.216;2023-09-18T12:19:05;99581.59;;;28.32;44.23
79136;BME280;68533;51.090;17.216;2023-09-18T12:21:42;99582.66;;;28.99;43.76
79136;BME280;68533;51.090;17.216;2023-09-18T12:24:20;99577.03;;;29.22;41.90
79136;BME280;68533;51.090;17.216;2023-09-18T12:26:47;99581.34;;;29.30;41.88
79136;BME280;68533;51.090;17.216;2023-09-18T12:29:13;99572.59;;;29.21;42.61
79136;BME280;68533;51.090;17.216;2023-09-18T12:31:40;99559.50;;;29.74;42.57
79136;BME280;68533;51.090;17.216;2023-09-18T12:34:17;99563.09;;;29.78;42.14
79136;BME280;68533;51.090;17.216;2023-09-18T12:37:03;99560.47;;;29.21;42.51
79136;BME280;68533;51.090;17.216;2023-09-18T12:39:50;99561.09;;;29.09;43.44
79136;BME280;68533;51.090;17.216;2023-09-18T12:42:21;99552.88;;;29.61;42.90
79136;BME280;68533;51.090;17.216;2023-09-18T12:44:50;99557.84;;;29.33;43.20
79136;BME280;68533;51.090;17.216;2023-09-18T12:47:21;99560.44;;;29.87;43.19
79136;BME280;68533;51.090;17.216;2023-09-18T12:50:02;99546.50;;;29.10;42.94
79136;BME280;68533;51.090;17.216;2023-09-18T12:52:30;99550.31;;;28.73;44.17
79136;BME280;68533;51.090;17.216;2023-09-18T12:54:57;99557.19;;;28.72;44.24
79136;BME280;68533;51.090;17.216;2023-09-18T12:57:26;99540.88;;;28.30;44.57
79136;BME280;68533;51.090;17.216;2023-09-18T12:59:52;99536.88;;;28.24;44.53